Time;durP1;ratioP1;P1;durP2;ratioP2;P2;SDS_P1;SDS_P2;PMS_P1;PMS_P2;Temp;Humidity;BMP_temperature;BMP_pressure;BME280_temperature;BME280_humidity;BME280_pressure;Samples;Min_cycle;Max_cycle;Signal;HPM_P1;HPM_P2
2022/01/08 00:05:12;;;;;;;1999.90;999.90;;;;;;;3.12;79.46;100539.44;15557201;28;20137;-63
2022/01/08 00:12:45;;;;;;;1999.90;999.90;;;;;;;3.10;79.69;100539.72;15531113;28;20046;-64
2022/01/08 00:20:19;;;;;;;1999.90;999.90;;;;;;;3.06;79.97;100535.09;15557003;28;20128;-64
2022/01/08 00:27:51;;;;;;;1999.90;999.90;;;;;;;2.90;80.66;100548.16;15527755;28;20045;-65
2022/01/08 00:35:26;;;;;;;1999.90;999.90;;;;;;;3.19;80.24;100534.44;15515572;28;20045;-64
2022/01/08 00:42:59;;;;;;;1999.90;999.90;;;;;;;3.24;80.09;100536.34;15559667;28;20042;-65
2022/01/08 00:50:32;;;;;;;1999.90;999.90;;;;;;;3.05;81.08;100530.69;15531157;28;20058;-63
2022/01/08 00:58:05;;;;;;;1999.90;999.90;;;;;;;3.16;80.58;100530.31;15580786;28;20049;-63
2022/01/08 01:05:39;;;;;;;1999.90;999.90;;;;;;;3.28;80.15;100527.19;15540860;28;20054;-64
2022/01/08 01:13:12;;;;;;;1999.90;999.90;;;;;;;3.18;80.63;100525.34;15517172;28;20045;-64
2022/01/08 01:20:46;;;;;;;1999.90;999.90;;;;;;;3.32;79.98;100519.97;15530736;28;20046;-65
2022/01/08 01:28:31;;;;;;;1999.90;999.90;;;;;;;3.42;79.14;100514.34;15505110;28;20422;-65
2022/01/08 01:51:48;;;;;;;1999.90;999.90;;;;;;;3.46;78.79;100489.78;15513367;28;20085;-66
2022/01/08 01:59:21;;;;;;;1999.90;999.90;;;;;;;3.42;78.95;100491.47;15574083;28;20050;-64
2022/01/08 02:06:54;;;;;;;1999.90;999.90;;;;;;;3.53;79.16;100497.69;15568795;28;20574;-64
2022/01/08 02:14:29;;;;;;;1999.90;999.90;;;;;;;3.22;79.77;100481.44;15550843;28;20129;-65
2022/01/08 02:22:05;;;;;;;1999.90;999.90;;;;;;;3.02;80.24;100465.09;15557279;28;20130;-63
2022/01/08 02:29:38;;;;;;;1999.90;999.90;;;;;;;3.04;80.08;100473.91;15520603;28;20507;-65
2022/01/08 02:37:13;;;;;;;1999.90;999.90;;;;;;;3.27;80.03;100470.38;15544178;28;20412;-64
2022/01/08 02:44:48;;;;;;;1999.90;999.90;;;;;;;3.63;78.89;100475.53;15534733;28;20042;-64
2022/01/08 02:52:22;;;;;;;1999.90;999.90;;;;;;;3.79;78.29;100481.72;15536027;28;20038;-64
2022/01/08 02:59:55;;;;;;;1999.90;999.90;;;;;;;3.69;78.21;100482.66;15520347;28;20116;-64
2022/01/08 03:07:29;;;;;;;1999.90;999.90;;;;;;;3.51;78.78;100475.09;15550502;28;20485;-65
2022/01/08 03:15:01;;;;;;;1999.90;999.90;;;;;;;3.46;78.92;100478.75;15514478;28;20519;-66
2022/01/08 03:22:38;;;;;;;1999.90;999.90;;;;;;;3.63;78.32;100479.09;15520923;28;20053;-64
2022/01/08 03:30:13;;;;;;;1999.90;999.90;;;;;;;3.40;78.82;100468.88;15547278;28;20050;-63
2022/01/08 03:37:49;;;;;;;1999.90;999.90;;;;;;;3.40;78.34;100477.97;15521184;28;20054;-64
2022/01/08 03:45:21;;;;;;;1999.90;999.90;;;;;;;3.41;77.42;100471.34;15532469;28;20542;-64
2022/01/08 03:52:55;;;;;;;1999.90;999.90;;;;;;;3.41;77.21;100467.75;15507797;28;20439;-65
2022/01/08 04:00:28;;;;;;;1999.90;999.90;;;;;;;3.26;77.94;100460.47;15512020;28;20077;-64
2022/01/08 04:08:02;;;;;;;1999.90;999.90;;;;;;;3.58;76.69;100467.31;15557956;28;20050;-64
2022/01/08 04:15:38;;;;;;;1999.90;999.90;;;;;;;3.48;77.76;100471.81;15521201;28;20411;-64
2022/01/08 04:23:14;;;;;;;1999.90;999.90;;;;;;;3.70;76.75;100468.53;15540089;28;20081;-63
2022/01/08 04:30:46;;;;;;;1999.90;999.90;;;;;;;3.78;76.47;100474.56;15542874;28;20500;-66
2022/01/08 04:38:20;;;;;;;1999.90;999.90;;;;;;;3.77;77.00;100479.25;15506618;28;20102;-64
2022/01/08 04:45:53;;;;;;;1999.90;999.90;;;;;;;3.76;76.42;100480.38;15541262;28;20054;-64
2022/01/08 04:53:27;;;;;;;1999.90;999.90;;;;;;;3.91;76.33;100480.19;15577351;28;20060;-64
2022/01/08 05:01:00;;;;;;;1999.90;999.90;;;;;;;3.96;76.34;100487.56;15547675;28;20133;-64
2022/01/08 05:08:33;;;;;;;1999.90;999.90;;;;;;;3.87;76.75;100500.38;15559568;28;20045;-64
2022/01/08 05:16:07;;;;;;;1999.90;999.90;;;;;;;3.74;77.02;100497.19;15532710;28;20046;-63
2022/01/08 05:23:41;;;;;;;1999.90;999.90;;;;;;;3.94;77.02;100498.91;15532145;28;20137;-64
2022/01/08 05:31:15;;;;;;;1999.90;999.90;;;;;;;3.80;76.61;100486.94;15540355;28;20043;-64
2022/01/08 05:38:49;;;;;;;1999.90;999.90;;;;;;;3.73;77.04;100484.50;15548098;28;20495;-64
2022/01/08 05:46:22;;;;;;;1999.90;999.90;;;;;;;3.84;76.01;100493.50;15557543;28;20080;-63
2022/01/08 05:53:56;;;;;;;1999.90;999.90;;;;;;;3.94;75.99;100504.44;15578535;28;20491;-63
2022/01/08 06:01:29;;;;;;;1999.90;999.90;;;;;;;4.03;75.80;100501.84;15556224;28;20136;-64
2022/01/08 06:09:03;;;;;;;1999.90;999.90;;;;;;;4.11;75.01;100497.63;15499811;28;20450;-65
2022/01/08 06:16:38;;;;;;;1999.90;999.90;;;;;;;3.98;75.59;100508.25;15550617;28;20049;-65
2022/01/08 06:24:12;;;;;;;1999.90;999.90;;;;;;;3.62;74.87;100518.84;15558703;28;20041;-65
2022/01/08 06:31:44;;;;;;;1999.90;999.90;;;;;;;3.30;76.17;100508.41;15593441;28;20065;-64
2022/01/08 06:39:19;;;;;;;1999.90;999.90;;;;;;;3.43;75.53;100521.50;15556831;28;20076;-64
2022/01/08 06:46:51;;;;;;;1999.90;999.90;;;;;;;3.38;75.52;100526.28;15572821;28;20046;-64
2022/01/08 06:54:25;;;;;;;1999.90;999.90;;;;;;;3.39;75.36;100544.47;15518172;28;20092;-65
2022/01/08 07:01:58;;;;;;;1999.90;999.90;;;;;;;3.44;75.82;100542.50;15532583;28;20129;-63
2022/01/08 07:09:32;;;;;;;1999.90;999.90;;;;;;;3.46;76.06;100550.47;15513880;28;20459;-64
2022/01/08 07:17:05;;;;;;;1999.90;999.90;;;;;;;3.54;74.55;100554.53;15586838;28;20125;-64
2022/01/08 07:24:39;;;;;;;1999.90;999.90;;;;;;;3.08;76.39;100557.69;15492559;28;20062;-64
2022/01/08 07:32:11;;;;;;;1999.90;999.90;;;;;;;3.44;75.53;100549.94;15522370;28;20050;-64
2022/01/08 07:39:45;;;;;;;1999.90;999.90;;;;;;;3.52;75.02;100548.47;15597206;28;20061;-64
2022/01/08 07:47:18;;;;;;;1999.90;999.90;;;;;;;3.51;75.45;100557.88;15596930;28;20347;-64
2022/01/08 07:54:52;;;;;;;1999.90;999.90;;;;;;;3.68;74.74;100564.63;15552608;28;20050;-64
2022/01/08 08:02:25;;;;;;;1999.90;999.90;;;;;;;3.63;75.11;100566.59;15551069;28;20136;-65
2022/01/08 08:09:58;;;;;;;1999.90;999.90;;;;;;;3.72;74.98;100564.84;15533287;28;20046;-64
2022/01/08 08:17:31;;;;;;;1999.90;999.90;;;;;;;3.71;75.17;100575.06;15574146;28;20053;-64
2022/01/08 08:25:07;;;;;;;1999.90;999.90;;;;;;;3.72;75.13;100570.38;15591812;28;20046;-64
2022/01/08 08:32:40;;;;;;;1999.90;999.90;;;;;;;3.44;75.53;100566.50;15613890;28;20070;-63
2022/01/08 08:40:15;;;;;;;1999.90;999.90;;;;;;;3.60;75.72;100559.72;15565080;28;20054;-63
2022/01/08 08:47:49;;;;;;;1999.90;999.90;;;;;;;3.74;75.42;100554.31;15597860;28;20037;-64
2022/01/08 08:55:23;;;;;;;1999.90;999.90;;;;;;;3.81;74.51;100554.81;15625643;28;20115;-64
2022/01/08 09:02:55;;;;;;;1999.90;999.90;;;;;;;3.94;74.20;100551.34;15625790;28;20037;-65
2022/01/08 09:10:29;;;;;;;1999.90;999.90;;;;;;;4.04;74.23;100553.19;15607804;28;20042;-65
2022/01/08 09:18:02;;;;;;;1999.90;999.90;;;;;;;4.18;73.43;100556.09;15624524;28;20045;-64
2022/01/08 09:25:36;;;;;;;1999.90;999.90;;;;;;;4.18;73.44;100562.44;15592358;28;20080;-64
2022/01/08 09:33:09;;;;;;;1999.90;999.90;;;;;;;4.33;72.74;100567.75;15561446;28;20042;-63
2022/01/08 09:40:43;;;;;;;1999.90;999.90;;;;;;;5.03;71.27;100580.91;15548533;28;20796;-62
2022/01/08 09:48:16;;;;;;;1999.90;999.90;;;;;;;6.14;68.32;100580.13;15574777;28;20495;-62
2022/01/08 09:55:50;;;;;;;1999.90;999.90;;;;;;;6.57;64.79;100574.31;15613038;28;20042;-62
2022/01/08 10:03:26;;;;;;;1999.90;999.90;;;;;;;5.64;67.00;100559.75;15577494;28;20299;-63
2022/01/08 10:11:02;;;;;;;1999.90;999.90;;;;;;;4.91;69.42;100559.25;15557738;28;20062;-62
2022/01/08 10:18:37;;;;;;;1999.90;999.90;;;;;;;4.42;70.40;100551.34;15542444;28;20573;-64
2022/01/08 10:26:13;;;;;;;1999.90;999.90;;;;;;;4.75;70.67;100545.94;15560788;28;20052;-63
2022/01/08 10:33:49;;;;;;;1999.90;999.90;;;;;;;5.03;69.33;100536.66;15560649;28;20064;-64
2022/01/08 10:41:24;;;;;;;1999.90;999.90;;;;;;;5.02;68.96;100535.03;15556427;28;20041;-63
2022/01/08 10:48:57;;;;;;;1999.90;999.90;;;;;;;6.51;65.71;100533.94;15557878;28;20100;-63
2022/01/08 10:56:35;;;;;;;1999.90;999.90;;;;;;;6.44;64.99;100541.84;15609823;28;20053;-63
2022/01/08 11:04:08;;;;;;;1999.90;999.90;;;;;;;7.98;62.63;100530.31;15616210;28;20510;-63
2022/01/08 11:11:43;;;;;;;1999.90;999.90;;;;;;;8.48;59.67;100529.22;15568773;28;20042;-63
2022/01/08 11:19:17;;;;;;;1999.90;999.90;;;;;;;9.62;56.73;100545.63;15479723;28;20459;-62
2022/01/08 11:26:54;;;;;;;1999.90;999.90;;;;;;;10.71;54.40;100548.63;15504850;28;20057;-63
2022/01/08 11:34:30;;;;;;;1999.90;999.90;;;;;;;10.04;56.71;100543.84;15506932;28;20077;-63
2022/01/08 11:42:04;;;;;;;1999.90;999.90;;;;;;;8.35;61.19;100525.41;15504753;28;20475;-63
2022/01/08 11:49:37;;;;;;;1999.90;999.90;;;;;;;8.00;60.95;100519.69;15487940;28;20508;-63
2022/01/08 11:57:18;;;;;;;1999.90;999.90;;;;;;;7.44;63.56;100521.19;15604259;28;20310;-62
2022/01/08 12:04:53;;;;;;;1999.90;999.90;;;;;;;7.43;64.36;100527.06;15626491;28;20042;-64
2022/01/08 12:12:46;;;;;;;1999.90;999.90;;;;;;;7.32;64.95;100522.91;15624941;28;20519;-62
2022/01/08 12:20:43;;;;;;;1999.90;999.90;;;;;;;7.81;62.61;100521.88;15625254;28;20578;-63
2022/01/08 12:36:28;;;;;;;1999.90;999.90;;;;;;;16.05;42.68;100504.47;15784166;27;20429;-62
2022/01/08 12:44:34;;;;;;;1999.90;999.90;;;;;;;15.62;41.07;100500.81;15794850;28;20044;-63
2022/01/08 12:52:09;;;;;;;1999.90;999.90;;;;;;;15.82;41.20;100498.78;15794431;28;20041;-60
2022/01/08 12:59:42;;;;;;;1999.90;999.90;;;;;;;17.05;38.12;100494.75;15794479;28;20059;-61
2022/01/08 13:07:21;;;;;;;1999.90;999.90;;;;;;;11.22;48.60;100490.75;15793299;28;20109;-62
2022/01/08 13:15:03;;;;;;;1999.90;999.90;;;;;;;7.37;60.56;100481.94;15792703;28;20456;-60
2022/01/08 13:22:37;;;;;;;1999.90;999.90;;;;;;;6.80;63.23;100478.13;15773021;28;20474;-63
2022/01/08 13:30:11;;;;;;;1999.90;999.90;;;;;;;6.88;64.28;100457.97;15790160;28;20467;-60
2022/01/08 13:37:45;;;;;;;1999.90;999.90;;;;;;;6.78;64.23;100460.97;15791104;28;20048;-64
2022/01/08 13:45:20;;;;;;;1999.90;999.90;;;;;;;6.65;65.12;100449.59;15744137;28;20045;-63
2022/01/08 13:52:58;;;;;;;1999.90;999.90;;;;;;;6.63;65.18;100456.59;15732034;28;20052;-63
2022/01/08 14:00:33;;;;;;;1999.90;999.90;;;;;;;6.59;66.15;100444.50;15748357;28;20101;-64
2022/01/08 14:08:09;;;;;;;1999.90;999.90;;;;;;;6.51;66.29;100442.47;15749126;28;20048;-63
2022/01/08 14:15:43;;;;;;;1999.90;999.90;;;;;;;6.33;66.95;100447.03;15747829;28;20063;-63
2022/01/08 14:23:19;;;;;;;1999.90;999.90;;;;;;;5.94;67.21;100439.28;15731142;28;20528;-63
2022/01/08 14:31:09;;;;;;;1999.90;999.90;;;;;;;6.13;66.63;100430.84;15733352;28;20063;-63
2022/01/08 14:38:50;;;;;;;1999.90;999.90;;;;;;;6.07;66.71;100424.63;15717754;28;20048;-66
2022/01/08 14:46:23;;;;;;;1999.90;999.90;;;;;;;6.10;65.91;100420.41;15720378;28;20520;-64
2022/01/08 14:53:57;;;;;;;1999.90;999.90;;;;;;;5.98;66.02;100420.94;15723964;28;20047;-63
2022/01/08 15:01:30;;;;;;;1999.90;999.90;;;;;;;5.81;67.09;100413.19;15743550;28;20448;-64
2022/01/08 15:09:04;;;;;;;1999.90;999.90;;;;;;;5.77;66.46;100407.47;15742155;28;20044;-62
2022/01/08 15:16:37;;;;;;;1999.90;999.90;;;;;;;5.97;66.50;100409.03;15740351;28;20075;-61
2022/01/08 15:24:11;;;;;;;1999.90;999.90;;;;;;;6.03;65.75;100413.31;15740925;28;20045;-66
2022/01/08 15:31:44;;;;;;;1999.90;999.90;;;;;;;5.86;66.29;100407.56;15740999;28;20068;-61
2022/01/08 15:39:18;;;;;;;1999.90;999.90;;;;;;;5.61;67.23;100408.09;15740428;28;20569;-64
2022/01/08 15:46:51;;;;;;;1999.90;999.90;;;;;;;5.78;67.48;100400.81;15738574;28;20533;-62
2022/01/08 15:54:25;;;;;;;1999.90;999.90;;;;;;;5.85;67.27;100400.41;15722260;28;20044;-64
2022/01/08 16:02:06;;;;;;;1999.90;999.90;;;;;;;5.40;68.98;100400.19;15738095;28;20056;-64
2022/01/08 16:09:45;;;;;;;1999.90;999.90;;;;;;;5.31;69.45;100390.13;15738747;28;20056;-62
2022/01/08 16:17:18;;;;;;;1999.90;999.90;;;;;;;5.36;69.37;100381.75;15740349;28;20048;-63
2022/01/08 16:24:53;;;;;;;1999.90;999.90;;;;;;;5.41;69.24;100370.56;15738511;28;20072;-63
2022/01/08 16:32:32;;;;;;;1999.90;999.90;;;;;;;5.47;68.87;100358.28;15738384;28;20041;-61
2022/01/08 16:40:09;;;;;;;1999.90;999.90;;;;;;;5.81;68.35;100352.28;15739763;28;20037;-61
2022/01/08 16:47:42;;;;;;;1999.90;999.90;;;;;;;5.61;68.71;100349.94;15740564;28;20048;-65
2022/01/08 16:55:16;;;;;;;1999.90;999.90;;;;;;;5.19;69.11;100340.84;15739484;28;20040;-64
2022/01/08 17:02:49;;;;;;;1999.90;999.90;;;;;;;5.19;69.07;100324.22;15739214;28;20076;-64
2022/01/08 17:10:23;;;;;;;1999.90;999.90;;;;;;;5.38;69.31;100300.06;15738288;28;20087;-66
2022/01/08 17:17:56;;;;;;;1999.90;999.90;;;;;;;5.25;69.09;100300.88;15725317;28;20053;-66
2022/01/08 17:25:32;;;;;;;1999.90;999.90;;;;;;;5.13;70.10;100287.56;15748727;28;20502;-63
2022/01/08 17:33:05;;;;;;;1999.90;999.90;;;;;;;5.22;69.33;100266.38;15750107;28;20048;-64
2022/01/08 17:40:42;;;;;;;1999.90;999.90;;;;;;;5.10;69.88;100251.41;15738991;28;20692;-63
2022/01/08 17:48:15;;;;;;;1999.90;999.90;;;;;;;4.96;69.83;100232.06;15715525;28;20049;-63
2022/01/08 17:55:50;;;;;;;1999.90;999.90;;;;;;;5.24;68.38;100230.09;15703638;28;20425;-63
2022/01/08 18:03:23;;;;;;;1999.90;999.90;;;;;;;5.06;70.82;100220.78;15716905;28;20068;-64
2022/01/08 18:10:57;;;;;;;1999.90;999.90;;;;;;;4.92;69.02;100206.16;15718897;28;20041;-63
2022/01/08 18:18:30;;;;;;;1999.90;999.90;;;;;;;4.29;70.98;100187.47;15734594;28;20071;-62
2022/01/08 18:26:04;;;;;;;1999.90;999.90;;;;;;;4.19;71.60;100179.38;15733989;28;20036;-63
2022/01/08 18:33:38;;;;;;;1999.90;999.90;;;;;;;4.16;71.04;100157.88;15720572;28;20402;-62
2022/01/08 18:41:13;;;;;;;1999.90;999.90;;;;;;;4.60;70.11;100144.31;15725460;28;20089;-64
2022/01/08 18:48:46;;;;;;;1999.90;999.90;;;;;;;4.41;70.12;100145.53;15729548;28;20057;-63
2022/01/08 18:56:20;;;;;;;1999.90;999.90;;;;;;;3.96;71.63;100120.41;15726988;28;20094;-65
2022/01/08 19:03:53;;;;;;;1999.90;999.90;;;;;;;3.97;71.60;100111.03;15727824;28;20098;-64
2022/01/08 19:11:27;;;;;;;1999.90;999.90;;;;;;;4.04;71.05;100092.09;15733114;28;20047;-66
2022/01/08 19:18:59;;;;;;;1999.90;999.90;;;;;;;3.69;72.02;100082.53;15733316;28;20076;-64
2022/01/08 19:26:33;;;;;;;1999.90;999.90;;;;;;;3.50;72.43;100065.19;15718788;28;20128;-62
2022/01/08 19:34:06;;;;;;;1999.90;999.90;;;;;;;3.18;73.09;100066.81;15732605;28;20123;-63
2022/01/08 19:41:41;;;;;;;1999.90;999.90;;;;;;;3.02;73.88;100048.88;15716639;28;20646;-63
2022/01/08 19:49:13;;;;;;;1999.90;999.90;;;;;;;3.00;73.39;100029.88;15731425;28;20045;-64
2022/01/08 19:56:47;;;;;;;1999.90;999.90;;;;;;;2.97;73.64;100018.63;15719428;28;20044;-64
2022/01/08 20:04:20;;;;;;;1999.90;999.90;;;;;;;2.83;73.46;100008.38;15730038;28;20429;-64
2022/01/08 20:11:54;;;;;;;1999.90;999.90;;;;;;;2.74;73.48;99982.63;15721819;28;20043;-64
2022/01/08 20:19:28;;;;;;;1999.90;999.90;;;;;;;2.68;73.10;99956.25;15687200;28;20045;-63
2022/01/08 20:27:03;;;;;;;1999.90;999.90;;;;;;;2.49;73.36;99944.41;15708934;28;20124;-65
2022/01/08 20:34:36;;;;;;;1999.90;999.90;;;;;;;2.41;73.36;99920.34;15704982;28;20051;-63
2022/01/08 20:42:10;;;;;;;1999.90;999.90;;;;;;;2.46;72.97;99909.22;15729740;28;20119;-65
2022/01/08 20:49:42;;;;;;;1999.90;999.90;;;;;;;2.30;72.73;99892.13;15716959;28;20456;-64
2022/01/08 20:57:16;;;;;;;1999.90;999.90;;;;;;;2.53;71.91;99877.44;15711931;28;20048;-66
2022/01/08 21:04:49;;;;;;;1999.90;999.90;;;;;;;2.28;72.19;99847.53;15723674;28;20060;-65
2022/01/08 21:12:23;;;;;;;1999.90;999.90;;;;;;;2.33;71.80;99830.97;15732504;28;20041;-65
2022/01/08 21:19:56;;;;;;;1999.90;999.90;;;;;;;2.22;71.35;99816.53;15699280;28;20494;-65
2022/01/08 21:27:31;;;;;;;1999.90;999.90;;;;;;;2.07;71.95;99811.25;15721270;28;20040;-63
2022/01/08 21:35:05;;;;;;;1999.90;999.90;;;;;;;2.15;71.04;99805.09;15733828;28;20068;-61
2022/01/08 21:42:39;;;;;;;1999.90;999.90;;;;;;;2.26;70.89;99787.28;15719057;28;20516;-63
2022/01/08 21:50:15;;;;;;;1999.90;999.90;;;;;;;2.29;70.08;99761.94;15692134;28;20037;-63
2022/01/08 21:57:49;;;;;;;1999.90;999.90;;;;;;;2.13;70.22;99749.53;15705978;28;20048;-65
2022/01/08 22:05:22;;;;;;;1999.90;999.90;;;;;;;2.14;69.16;99729.13;15739584;28;20037;-65
2022/01/08 22:12:56;;;;;;;1999.90;999.90;;;;;;;2.25;68.46;99741.59;15717587;28;20075;-66
2022/01/08 22:20:28;;;;;;;1999.90;999.90;;;;;;;2.24;68.17;99706.13;15712003;28;20044;-67
2022/01/08 22:28:04;;;;;;;1999.90;999.90;;;;;;;2.18;69.17;99688.06;15704089;28;20048;-63
2022/01/08 22:35:36;;;;;;;1999.90;999.90;;;;;;;2.16;68.94;99662.78;15721688;28;20090;-68
2022/01/08 22:43:10;;;;;;;1999.90;999.90;;;;;;;1.88;69.77;99656.41;15694074;28;20068;-65
2022/01/08 22:50:43;;;;;;;1999.90;999.90;;;;;;;1.85;69.77;99633.06;15706622;28;20041;-64
2022/01/08 22:58:19;;;;;;;1999.90;999.90;;;;;;;2.03;69.58;99604.66;15721423;28;20055;-64
2022/01/08 23:05:58;;;;;;;1999.90;999.90;;;;;;;2.13;69.37;99595.41;15732211;28;20303;-64
2022/01/08 23:13:32;;;;;;;1999.90;999.90;;;;;;;1.94;69.13;99578.16;15721360;28;20051;-63
2022/01/08 23:21:06;;;;;;;1999.90;999.90;;;;;;;1.88;69.05;99571.94;15727589;28;20045;-64
2022/01/08 23:28:41;;;;;;;1999.90;999.90;;;;;;;2.00;68.50;99564.00;15714716;28;20044;-63
2022/01/08 23:36:14;;;;;;;1999.90;999.90;;;;;;;1.84;68.67;99537.09;15716731;28;20044;-63
2022/01/08 23:43:48;;;;;;;1999.90;999.90;;;;;;;1.71;68.82;99522.19;15726690;28;20047;-64
2022/01/08 23:51:22;;;;;;;1999.90;999.90;;;;;;;1.73;68.57;99515.28;15743281;28;20032;-63
2022/01/08 23:58:56;;;;;;;1999.90;999.90;;;;;;;1.51;69.05;99495.88;15707259;28;20413;-63
